Time;durP1;ratioP1;P1;durP2;ratioP2;P2;SDS_P1;SDS_P2;PMS_P1;PMS_P2;Temp;Humidity;BMP_temperature;BMP_pressure;BME280_temperature;BME280_humidity;BME280_pressure;Samples;Min_cycle;Max_cycle;Signal;HPM_P1;HPM_P2
2022/08/09 00:01:49;;;;;;;79.63;75.32;;;;;;;22.95;69.68;101182.06;5090160;27;102065;-55
2022/08/09 00:04:18;;;;;;;1052.88;351.42;;;;;;;22.96;69.62;101188.41;5093039;27;102500;-55
2022/08/09 00:06:47;;;;;;;4.30;3.97;;;;;;;22.96;69.05;101188.41;5096023;27;102226;-55
2022/08/09 00:09:15;;;;;;;4.35;4.05;;;;;;;22.96;69.52;101193.97;5091333;27;103961;-55
2022/08/09 00:11:43;;;;;;;4.47;4.07;;;;;;;22.97;69.36;101190.03;5100260;27;102283;-55
2022/08/09 00:14:10;;;;;;;4.50;4.20;;;;;;;22.95;69.52;101189.59;5076987;27;102431;-55
2022/08/09 00:16:36;;;;;;;5.00;4.30;;;;;;;22.94;69.26;101186.00;5085725;27;102299;-55
2022/08/09 00:19:03;;;;;;;34.90;7.35;;;;;;;22.95;69.02;101181.25;5070508;27;104233;-55
2022/08/09 00:21:31;;;;;;;4.55;4.20;;;;;;;22.97;69.54;101185.31;5072783;27;102253;-55
2022/08/09 00:23:58;;;;;;;4.32;4.03;;;;;;;22.95;69.50;101189.59;5064297;27;101997;-55
2022/08/09 00:26:26;;;;;;;4.33;4.03;;;;;;;22.94;69.53;101186.00;5062564;27;102697;-55
2022/08/09 00:28:53;;;;;;;4.32;3.95;;;;;;;22.94;69.27;101185.19;5072688;27;103964;-55
2022/08/09 00:31:20;;;;;;;4.45;4.13;;;;;;;22.93;69.83;101187.13;5077090;27;102267;-55
2022/08/09 00:33:47;;;;;;;63.47;19.73;;;;;;;22.93;69.76;101183.56;5066492;27;102522;-55
2022/08/09 00:36:13;;;;;;;222.73;30.30;;;;;;;22.93;69.81;101189.09;5074652;27;102331;-55
2022/08/09 00:38:40;;;;;;;37.85;5.65;;;;;;;22.92;69.45;101191.06;5077244;27;103925;-55
2022/08/09 00:41:08;;;;;;;23.60;5.20;;;;;;;22.93;69.95;101186.34;5073800;27;102291;-55
2022/08/09 00:43:36;;;;;;;890.67;203.52;;;;;;;22.93;69.74;101183.56;5066905;27;102227;-55
2022/08/09 00:46:04;;;;;;;15.13;5.60;;;;;;;22.93;69.36;101189.09;5064597;27;102180;-55
2022/08/09 00:48:31;;;;;;;536.88;257.00;;;;;;;22.92;69.63;101187.50;5072087;27;104151;-55
2022/08/09 00:51:02;;;;;;;1252.80;867.75;;;;;;;22.92;69.75;101184.72;5072859;27;102461;-55
2022/08/09 00:53:29;;;;;;;948.47;731.22;;;;;;;22.92;69.69;101179.16;5078056;27;103817;-55
2022/08/09 00:55:56;;;;;;;1999.90;999.90;;;;;;;22.93;68.94;101189.91;5066280;27;102566;-55
2022/08/09 00:58:24;;;;;;;656.97;612.40;;;;;;;22.92;69.39;101181.94;5058556;27;104032;-55
2022/08/09 01:00:53;;;;;;;644.63;600.75;;;;;;;22.93;69.92;101189.09;5077958;27;102106;-55
2022/08/09 01:03:29;;;;;;;605.20;562.67;;;;;;;22.92;69.83;101193.03;5069902;27;102365;-55
2022/08/09 01:06:03;;;;;;;1999.90;999.90;;;;;;;22.91;69.75;101188.63;5071408;27;102325;-55
2022/08/09 01:08:39;;;;;;;851.78;787.55;;;;;;;22.92;69.52;101187.50;5071145;27;103910;-56
2022/08/09 01:11:16;;;;;;;1999.90;999.90;;;;;;;22.91;69.64;101186.66;5090794;27;102717;-55
2022/08/09 01:13:50;;;;;;;544.83;508.98;;;;;;;22.92;69.59;101187.50;5086703;27;102003;-55
2022/08/09 01:16:21;;;;;;;93.72;88.88;;;;;;;22.93;69.87;101194.66;5074066;27;102353;-55
2022/08/09 01:18:50;;;;;;;100.53;95.47;;;;;;;22.92;69.64;101184.72;5065956;27;103840;-55
2022/08/09 01:21:28;;;;;;;94.78;89.65;;;;;;;22.91;69.84;101191.41;5065373;27;102071;-55
2022/08/09 01:23:59;;;;;;;93.10;88.30;;;;;;;22.91;69.69;101185.84;5077162;27;102426;-55
2022/08/09 01:26:52;;;;;;;99.38;94.28;;;;;;;22.91;70.04;101181.09;5076974;27;102343;-56
2022/08/09 01:29:25;;;;;;;99.45;94.35;;;;;;;22.91;69.49;101181.09;5072998;27;104100;-55
2022/08/09 01:31:54;;;;;;;107.55;102.10;;;;;;;22.91;69.83;101181.09;5074688;27;102447;-55
2022/08/09 01:34:24;;;;;;;76.85;72.93;;;;;;;22.91;69.86;101174.75;5094005;27;102318;-55
2022/08/09 01:36:54;;;;;;;60.53;57.38;;;;;;;22.89;70.01;101172.31;5078561;27;102219;-55
2022/08/09 01:39:22;;;;;;;55.28;52.42;;;;;;;22.93;69.92;101175.22;5090458;27;103906;-55
2022/08/09 01:41:51;;;;;;;;;;;;;;;22.92;69.96;101176.41;5078414;27;102119;-56
2022/08/09 01:44:19;;;;;;;65.65;62.13;;;;;;;22.91;70.00;101174.75;5096965;27;102206;-55
2022/08/09 01:46:47;;;;;;;48.00;45.40;;;;;;;22.91;69.96;101174.75;5098702;27;102365;-56
2022/08/09 01:49:16;;;;;;;50.97;48.17;;;;;;;22.91;69.87;101171.97;5070921;27;108047;-57
2022/08/09 01:51:45;;;;;;;50.10;47.42;;;;;;;22.92;70.09;101165.28;5065219;27;102445;-55
2022/08/09 01:54:15;;;;;;;62.42;59.03;;;;;;;22.93;69.38;101178.00;5058033;27;102271;-54
2022/08/09 01:56:45;;;;;;;65.30;61.80;;;;;;;22.93;69.38;101180.78;5060668;27;102250;-54
2022/08/09 01:59:17;;;;;;;56.17;53.05;;;;;;;22.92;69.91;101173.63;5093826;27;103950;-55
2022/08/09 02:01:47;;;;;;;51.45;48.67;;;;;;;22.93;69.83;101180.78;5083435;27;102350;-55
2022/08/09 02:04:15;;;;;;;58.13;54.97;;;;;;;22.92;69.55;101184.72;5075906;27;102732;-55
2022/08/09 02:09:34;;;;;;;56.60;53.63;;;;;;;22.92;69.67;101184.72;5075689;27;103925;-55
2022/08/09 02:12:01;;;;;;;57.08;54.03;;;;;;;22.93;69.72;101172.44;5076535;27;102185;-55
2022/08/09 02:14:30;;;;;;;63.42;60.17;;;;;;;22.94;69.61;101182.44;5076805;27;102268;-55
2022/08/09 02:16:58;;;;;;;68.63;65.07;;;;;;;22.93;70.00;101181.59;5080124;27;102507;-55
2022/08/09 02:19:25;;;;;;;67.90;64.35;;;;;;;22.92;69.82;101182.75;5075618;27;104047;-55
2022/08/09 02:21:57;;;;;;;54.17;51.08;;;;;;;22.93;69.81;101180.78;5070401;27;102683;-55
2022/08/09 02:24:34;;;;;;;66.38;62.88;;;;;;;22.93;69.98;101178.00;5087725;27;102423;-54
2022/08/09 02:27:05;;;;;;;62.00;58.78;;;;;;;22.94;69.76;101179.66;5075019;27;102582;-55
2022/08/09 02:29:40;;;;;;;69.45;65.88;;;;;;;22.94;69.61;101179.66;5064081;27;103889;-55
2022/08/09 02:32:10;;;;;;;64.28;60.90;;;;;;;22.95;69.68;101181.25;5076110;27;102595;-55
2022/08/09 02:34:41;;;;;;;59.53;56.42;;;;;;;22.92;70.12;101176.41;5071823;27;103519;-55
2022/08/09 02:37:13;;;;;;;65.07;61.67;;;;;;;22.94;69.45;101174.91;5080444;27;102636;-55
2022/08/09 02:39:44;;;;;;;69.20;65.55;;;;;;;22.95;69.93;101176.50;5075252;27;104063;-55
2022/08/09 02:42:17;;;;;;;63.40;59.97;;;;;;;22.93;69.84;101173.25;5077015;27;102393;-55
2022/08/09 02:44:48;;;;;;;61.47;58.28;;;;;;;22.96;69.80;101177.31;5076523;27;102172;-56
2022/08/09 02:47:18;;;;;;;70.63;66.93;;;;;;;22.96;69.04;101188.41;5061071;27;102324;-55
2022/08/09 02:49:49;;;;;;;74.78;70.85;;;;;;;22.97;69.08;101184.47;5087432;27;103932;-54
2022/08/09 02:52:18;;;;;;;54.42;51.58;;;;;;;22.95;69.87;101182.06;5078348;27;102332;-55
2022/08/09 02:54:47;;;;;;;71.50;67.65;;;;;;;22.95;69.90;101186.81;5091650;27;102242;-54
2022/08/09 02:57:18;;;;;;;65.07;61.65;;;;;;;22.95;69.88;101193.16;5064270;27;102465;-55
2022/08/09 02:59:48;;;;;;;67.30;63.80;;;;;;;22.94;70.09;101190.75;5072050;27;104153;-55
2022/08/09 03:02:16;;;;;;;62.67;59.40;;;;;;;22.96;70.06;101199.53;5069732;27;102297;-55
2022/08/09 03:04:45;;;;;;;70.57;66.82;;;;;;;22.94;70.21;101185.19;5076025;27;102630;-54
2022/08/09 03:07:13;;;;;;;59.20;56.05;;;;;;;22.94;70.01;101191.56;5074885;27;102446;-55
2022/08/09 03:09:40;;;;;;;;;;;;;;;22.93;69.94;101189.09;5075976;27;103903;-55
2022/08/09 03:12:08;;;;;;;56.63;53.65;;;;;;;22.95;69.88;101198.72;5075247;27;102382;-55
2022/08/09 03:14:35;;;;;;;58.83;55.75;;;;;;;22.96;69.97;101199.53;5075788;27;102057;-55
2022/08/09 03:17:03;;;;;;;77.82;73.72;;;;;;;22.97;69.83;101201.13;5078189;27;102670;-55
2022/08/09 03:19:32;;;;;;;71.32;67.60;;;;;;;22.96;69.45;101202.31;5081198;27;103773;-55
2022/08/09 03:21:59;;;;;;;78.93;74.93;;;;;;;22.97;69.83;101201.97;5086944;27;102154;-55
2022/08/09 03:24:26;;;;;;;66.45;63.00;;;;;;;22.97;69.51;101201.13;5081081;27;102290;-54
2022/08/09 03:26:53;;;;;;;75.97;71.95;;;;;;;22.97;69.76;101204.75;5070017;27;102614;-55
2022/08/09 03:29:22;;;;;;;72.55;68.82;;;;;;;22.97;69.93;101206.69;5063717;27;104079;-55
2022/08/09 03:31:50;;;;;;;74.72;70.93;;;;;;;22.98;69.81;101208.34;5076953;27;102141;-55
2022/08/09 03:34:18;;;;;;;76.25;72.18;;;;;;;22.99;69.80;101201.63;5076545;27;102356;-55
2022/08/09 03:36:45;;;;;;;73.07;69.30;;;;;;;23.01;69.49;101215.97;5087742;27;102257;-55
2022/08/09 03:39:11;;;;;;;69.82;66.13;;;;;;;23.00;69.67;101200.44;5079205;27;104024;-55
2022/08/09 03:41:37;;;;;;;68.50;64.93;;;;;;;23.00;70.13;101211.56;5079445;27;102300;-55
2022/08/09 03:44:04;;;;;;;74.38;70.63;;;;;;;23.00;69.64;101208.78;5078563;27;102315;-55
2022/08/09 03:46:30;;;;;;;80.82;76.60;;;;;;;23.00;69.39;101209.59;5066076;27;102251;-55
2022/08/09 03:48:59;;;;;;;72.07;68.38;;;;;;;22.99;69.74;101207.97;5068429;27;103925;-55
2022/08/09 03:51:29;;;;;;;73.10;68.95;;;;;;;23.00;69.63;101194.91;5069736;27;102367;-55
2022/08/09 03:53:56;;;;;;;71.85;68.13;;;;;;;23.00;69.65;101200.44;5070553;27;102086;-55
2022/08/09 03:56:22;;;;;;;76.50;72.53;;;;;;;23.01;69.85;101202.09;5065778;27;102682;-55
2022/08/09 03:58:49;;;;;;;78.45;74.43;;;;;;;23.01;69.72;101213.19;5070627;27;103926;-55
2022/08/09 04:01:16;;;;;;;74.35;70.47;;;;;;;23.00;69.56;101206.81;5078355;27;102333;-55
2022/08/09 04:03:43;;;;;;;92.35;87.53;;;;;;;23.00;69.85;101211.56;5073857;27;102201;-55
2022/08/09 04:06:10;;;;;;;88.80;84.20;;;;;;;23.00;69.89;101211.56;5078456;27;102497;-55
2022/08/09 04:08:38;;;;;;;74.60;70.75;;;;;;;23.01;70.13;101207.66;5076216;27;104082;-55
2022/08/09 04:11:04;;;;;;;89.43;84.85;;;;;;;22.99;69.75;101198.84;5076625;27;102730;-55
2022/08/09 04:13:31;;;;;;;75.88;71.97;;;;;;;23.00;69.79;101206.00;5079568;27;102415;-55
2022/08/09 04:15:58;;;;;;;73.35;69.47;;;;;;;23.01;69.44;101199.31;5079469;27;102275;-55
2022/08/09 04:18:24;;;;;;;80.40;76.25;;;;;;;23.02;69.67;101198.16;5064687;27;104060;-55
2022/08/09 04:20:51;;;;;;;78.55;74.32;;;;;;;23.02;69.31;101203.72;5078347;27;102352;-55
2022/08/09 04:23:19;;;;;;;75.85;71.82;;;;;;;23.02;69.13;101192.59;5094531;27;102438;-55
2022/08/09 04:25:46;;;;;;;63.22;59.75;;;;;;;23.03;69.31;101194.22;5083164;27;102113;-55
2022/08/09 04:28:13;;;;;;;64.73;61.33;;;;;;;23.04;69.42;101201.38;5062487;27;104030;-55
2022/08/09 04:30:39;;;;;;;60.40;57.20;;;;;;;23.05;69.33;101200.25;5070202;27;102196;-55
2022/08/09 04:33:06;;;;;;;65.70;62.30;;;;;;;23.06;69.26;101198.28;5077751;27;102586;-56
2022/08/09 04:35:34;;;;;;;69.07;65.47;;;;;;;23.07;69.33;101189.59;5079068;27;102288;-55
2022/08/09 04:38:00;;;;;;;73.60;69.78;;;;;;;23.05;69.52;101197.47;5077937;27;103913;-55
2022/08/09 04:40:47;;;;;;;62.38;59.17;;;;;;;23.07;69.75;101194.34;5075782;27;102287;-55
2022/08/09 04:43:15;;;;;;;77.93;73.93;;;;;;;23.06;69.74;101187.97;5078031;27;102262;-55
2022/08/09 04:45:42;;;;;;;;;;;;;;;23.05;69.59;101191.91;5079085;27;102467;-55
2022/08/09 04:48:08;;;;;;;61.30;58.05;;;;;;;23.06;69.79;101192.72;5077418;27;103915;-55
2022/08/09 04:50:36;;;;;;;77.55;73.50;;;;;;;23.06;69.47;101195.50;5077871;27;102141;-55
2022/08/09 04:53:06;;;;;;;65.15;61.58;;;;;;;23.06;69.28;101193.53;5076736;27;102452;-55
2022/08/09 04:55:33;;;;;;;64.47;61.05;;;;;;;23.06;69.53;101192.72;5073046;27;102445;-55
2022/08/09 04:57:59;;;;;;;69.93;66.28;;;;;;;23.07;69.59;101194.34;5077859;27;103895;-55
2022/08/09 05:00:27;;;;;;;66.25;62.78;;;;;;;23.06;69.39;101193.53;5071200;27;102389;-55
2022/08/09 05:02:55;;;;;;;72.60;68.82;;;;;;;23.07;69.34;101189.59;5077899;27;102246;-55
2022/08/09 05:05:22;;;;;;;60.58;57.35;;;;;;;23.10;69.70;101188.91;5074088;27;102568;-55
2022/08/09 05:07:48;;;;;;;61.78;58.53;;;;;;;23.10;69.50;101197.25;5077482;27;104185;-54
2022/08/09 05:10:15;;;;;;;72.00;68.28;;;;;;;23.10;69.60;101194.47;5074144;27;102302;-55
2022/08/09 05:12:41;;;;;;;58.13;54.88;;;;;;;23.12;69.20;101194.13;5077548;27;101986;-56
2022/08/09 05:15:08;;;;;;;62.97;59.70;;;;;;;23.11;69.44;101201.63;5083243;27;102319;-55
2022/08/09 05:17:38;;;;;;;67.78;64.25;;;;;;;23.11;69.73;101192.50;5089129;27;103956;-56
2022/08/09 05:20:05;;;;;;;67.75;64.15;;;;;;;23.10;69.59;101200.00;5075115;27;102369;-55
2022/08/09 05:22:32;;;;;;;69.03;65.40;;;;;;;23.11;69.66;101198.84;5072167;27;102288;-55
2022/08/09 05:24:59;;;;;;;64.68;61.10;;;;;;;23.11;69.59;101207.19;5077536;27;102591;-55
2022/08/09 05:27:25;;;;;;;65.15;61.72;;;;;;;23.10;69.67;101199.22;5077037;27;103930;-55
2022/08/09 05:29:52;;;;;;;69.55;65.40;;;;;;;23.10;69.46;101200.00;5072305;27;102139;-55
2022/08/09 05:32:18;;;;;;;76.85;72.95;;;;;;;23.10;69.68;101200.00;5063732;27;102354;-55
2022/08/09 05:34:46;;;;;;;71.25;67.50;;;;;;;23.11;69.42;101195.28;5077906;27;102170;-55
2022/08/09 05:37:14;;;;;;;67.70;64.10;;;;;;;23.14;69.23;101192.63;5076814;27;103897;-55
2022/08/09 05:39:41;;;;;;;64.90;61.45;;;;;;;23.16;68.94;101198.66;5077551;27;102363;-55
2022/08/09 05:42:07;;;;;;;69.32;65.55;;;;;;;23.16;69.50;101193.09;5076395;27;102153;-55
2022/08/09 05:44:34;;;;;;;68.78;65.15;;;;;;;23.18;69.44;101195.50;5087313;27;102113;-55
2022/08/09 05:47:01;;;;;;;69.40;65.70;;;;;;;23.18;69.39;101190.75;5085720;27;104224;-55
2022/08/09 05:49:28;;;;;;;60.63;57.40;;;;;;;23.18;69.44;101185.22;5078596;27;102134;-55
2022/08/09 05:51:55;;;;;;;71.30;67.43;;;;;;;23.18;69.46;101184.41;5073518;27;102513;-55
2022/08/09 05:54:22;;;;;;;68.20;64.53;;;;;;;23.17;69.39;101194.69;5077904;27;102163;-55
2022/08/09 05:56:48;;;;;;;70.63;66.88;;;;;;;23.18;69.63;101196.31;5086463;27;104154;-55
2022/08/09 05:59:15;;;;;;;75.47;71.63;;;;;;;23.18;69.68;101196.31;5088389;27;102234;-55
2022/08/09 06:01:41;;;;;;;70.32;66.43;;;;;;;23.18;69.53;101196.31;5070375;27;102000;-55
2022/08/09 06:04:08;;;;;;;65.05;61.63;;;;;;;23.16;69.64;101198.66;5061430;27;102568;-55
2022/08/09 06:06:35;;;;;;;68.82;65.13;;;;;;;23.15;69.72;101197.03;5072389;27;104372;-55
2022/08/09 06:09:04;;;;;;;70.45;66.53;;;;;;;23.16;69.93;101198.66;5073455;27;102416;-55
2022/08/09 06:11:30;;;;;;;67.15;63.58;;;;;;;23.16;69.69;101198.66;5062135;27;102594;-55
2022/08/09 06:13:56;;;;;;;64.57;60.67;;;;;;;23.18;69.65;101189.97;5068970;27;102474;-55
2022/08/09 06:16:23;;;;;;;65.03;61.53;;;;;;;23.20;69.41;101194.03;5074074;27;104907;-55
2022/08/09 06:18:49;;;;;;;64.30;60.80;;;;;;;23.21;69.39;101190.06;5080090;27;102106;-55
2022/08/09 06:21:16;;;;;;;71.22;67.50;;;;;;;23.24;69.62;101194.94;5075870;27;102297;-55
2022/08/09 06:23:42;;;;;;;67.65;64.03;;;;;;;23.26;69.64;101198.19;5073856;27;102209;-55
2022/08/09 06:26:10;;;;;;;72.57;68.72;;;;;;;23.27;69.25;101199.81;5076017;27;103932;-55
2022/08/09 06:28:37;;;;;;;72.50;68.53;;;;;;;23.29;69.38;101190.31;5076587;27;102202;-55
2022/08/09 06:31:03;;;;;;;66.45;62.75;;;;;;;23.30;69.81;101189.16;5075249;27;102138;-55
2022/08/09 06:33:30;;;;;;;69.28;65.35;;;;;;;23.30;69.51;101191.94;5076890;27;102253;-55
2022/08/09 06:35:56;;;;;;;70.15;66.40;;;;;;;23.31;69.69;101197.16;5071246;27;103904;-55
2022/08/09 06:38:23;;;;;;;77.88;73.85;;;;;;;23.32;69.17;101203.50;5075252;27;102268;-56
2022/08/09 06:40:49;;;;;;;65.60;62.03;;;;;;;23.33;69.13;101202.34;5069185;27;102174;-55
2022/08/09 06:43:17;;;;;;;70.80;66.93;;;;;;;23.34;69.41;101195.66;5064469;27;102619;-55
2022/08/09 06:45:44;;;;;;;77.53;73.17;;;;;;;23.35;69.41;101194.50;5063085;27;103917;-55
2022/08/09 06:48:11;;;;;;;59.90;56.65;;;;;;;23.36;69.47;101201.66;5071790;27;102379;-55
2022/08/09 06:50:38;;;;;;;70.53;66.70;;;;;;;23.37;69.52;101204.09;5067103;27;103023;-55
2022/08/09 06:53:04;;;;;;;68.88;65.22;;;;;;;23.38;69.69;101207.69;5071726;27;102224;-54
2022/08/09 06:55:32;;;;;;;65.57;61.95;;;;;;;23.39;69.59;101200.97;5075127;27;104007;-55
2022/08/09 06:57:59;;;;;;;72.65;68.75;;;;;;;23.40;69.05;101214.50;5076091;27;103165;-55
2022/08/09 07:00:28;;;;;;;68.07;64.38;;;;;;;23.41;69.05;101196.69;5074747;27;103371;-55
2022/08/09 07:02:55;;;;;;;75.82;71.50;;;;;;;23.42;69.20;101200.28;5076980;27;102288;-55
2022/08/09 07:05:21;;;;;;;63.95;60.53;;;;;;;23.42;68.79;101205.84;5083955;27;103954;-55
2022/08/09 07:07:48;;;;;;;75.78;71.70;;;;;;;23.43;69.08;101197.16;5089663;27;102403;-55
2022/08/09 07:10:14;;;;;;;65.85;61.97;;;;;;;23.44;68.80;101197.94;5084115;27;102104;-55
2022/08/09 07:12:41;;;;;;;67.80;64.00;;;;;;;23.45;69.01;101197.63;5093654;27;102451;-55
2022/08/09 07:15:09;;;;;;;67.38;63.80;;;;;;;23.46;69.10;101196.44;5079044;27;104083;-55
2022/08/09 07:17:37;;;;;;;72.80;68.88;;;;;;;23.46;69.22;101195.66;5092153;27;103783;-55
2022/08/09 07:20:05;;;;;;;69.53;65.80;;;;;;;23.47;68.63;101197.25;5089257;27;102382;-55
2022/08/09 07:22:33;;;;;;;58.10;54.88;;;;;;;23.48;68.79;101198.91;5070211;27;102241;-55
2022/08/09 07:24:59;;;;;;;70.82;67.03;;;;;;;23.48;68.98;101198.91;5069900;27;104087;-55
2022/08/09 07:27:26;;;;;;;69.20;65.30;;;;;;;23.49;69.05;101200.50;5065598;27;102381;-55
2022/08/09 07:29:53;;;;;;;73.45;69.47;;;;;;;23.50;68.94;101197.38;5070744;27;102159;-55
2022/08/09 07:32:19;;;;;;;66.20;62.55;;;;;;;23.52;68.76;101204.56;5076057;27;102212;-55
2022/08/09 07:34:47;;;;;;;76.75;72.68;;;;;;;23.52;68.83;101199.03;5092915;27;103901;-59
2022/08/09 07:37:14;;;;;;;73.60;69.63;;;;;;;23.52;68.48;101202.59;5060453;27;102390;-54
2022/08/09 07:39:40;;;;;;;77.00;72.82;;;;;;;23.54;68.40;101197.50;5077080;27;102156;-56
2022/08/09 07:42:07;;;;;;;73.47;69.55;;;;;;;23.56;68.76;101206.31;5081173;27;102102;-54
2022/08/09 07:44:33;;;;;;;74.50;70.55;;;;;;;23.54;68.65;101208.59;5078828;27;104058;-55
2022/08/09 07:47:00;;;;;;;78.50;73.93;;;;;;;23.56;68.62;101202.72;5071713;27;102443;-54
2022/08/09 07:49:27;;;;;;;65.45;61.63;;;;;;;23.56;68.57;101200.75;5077718;27;102424;-55
2022/08/09 07:51:54;;;;;;;76.43;72.32;;;;;;;23.57;68.67;101190.44;5078107;27;102290;-54
2022/08/09 07:54:21;;;;;;;84.97;80.43;;;;;;;23.57;68.49;101190.44;5071075;27;104062;-55
2022/08/09 07:56:48;;;;;;;72.75;68.72;;;;;;;23.58;68.62;101197.59;5079294;27;102162;-55
2022/08/09 07:59:14;;;;;;;70.50;66.70;;;;;;;23.58;68.60;101194.81;5078743;27;102313;-55
2022/08/09 08:01:41;;;;;;;78.10;73.82;;;;;;;23.58;68.42;101192.84;5078955;27;102142;-54
2022/08/09 08:04:07;;;;;;;73.00;69.15;;;;;;;23.60;68.57;101201.66;5068150;27;103991;-55
2022/08/09 08:06:34;;;;;;;75.10;71.07;;;;;;;23.59;68.27;101194.50;5074338;27;102627;-55
2022/08/09 08:09:02;;;;;;;79.72;75.32;;;;;;;23.60;68.56;101185.00;5077473;27;102419;-55
2022/08/09 08:11:29;;;;;;;81.95;77.50;;;;;;;23.60;68.10;101190.56;5082206;27;102138;-55
2022/08/09 08:13:56;;;;;;;78.82;74.57;;;;;;;23.62;68.34;101192.97;5098653;27;103897;-55
2022/08/09 08:16:22;;;;;;;79.80;75.57;;;;;;;23.64;68.54;101191.47;5098147;27;103575;-55
2022/08/09 08:18:49;;;;;;;77.47;73.43;;;;;;;23.64;68.29;101183.13;5093259;27;102364;-55
2022/08/09 08:21:16;;;;;;;66.15;62.63;;;;;;;23.65;68.20;101184.75;5078035;27;102120;-54
2022/08/09 08:23:42;;;;;;;74.20;70.15;;;;;;;23.64;68.07;101180.34;5077753;27;103920;-55
2022/08/09 08:26:10;;;;;;;65.70;61.95;;;;;;;23.63;68.14;101184.31;5077786;27;102313;-55
2022/08/09 08:28:37;;;;;;;79.72;75.53;;;;;;;23.64;68.37;101180.34;5078233;27;102379;-54
2022/08/09 08:31:03;;;;;;;75.15;71.18;;;;;;;23.65;68.07;101179.19;5078608;27;103815;-55
2022/08/09 08:33:29;;;;;;;81.90;77.63;;;;;;;23.65;67.96;101176.41;5077544;27;103775;-55
2022/08/09 08:35:56;;;;;;;81.80;77.35;;;;;;;23.67;67.89;101178.88;5078307;27;102019;-55
2022/08/09 08:38:23;;;;;;;71.00;67.10;;;;;;;23.65;68.21;101176.41;5087698;27;102219;-55
2022/08/09 08:40:51;;;;;;;80.30;76.03;;;;;;;23.64;68.20;101174.81;5077646;27;102803;-55
2022/08/09 08:43:20;;;;;;;68.22;64.40;;;;;;;23.65;68.38;101173.63;5077954;27;103943;-55
2022/08/09 08:45:49;;;;;;;71.22;67.38;;;;;;;23.63;68.36;101178.75;5078086;27;102345;-55
2022/08/09 08:48:16;;;;;;;74.57;70.57;;;;;;;23.64;68.01;101180.34;5073547;27;103554;-55
2022/08/09 08:50:45;;;;;;;69.75;65.88;;;;;;;23.65;68.13;101179.19;5074833;27;102329;-55
2022/08/09 08:53:13;;;;;;;78.65;74.55;;;;;;;23.65;68.02;101179.19;5076742;27;103918;-55
2022/08/09 08:55:40;;;;;;;81.95;77.60;;;;;;;23.64;67.84;101166.47;5083502;27;102141;-55
2022/08/09 08:58:08;;;;;;;72.90;69.05;;;;;;;23.67;68.16;101174.13;5088858;27;102250;-55
2022/08/09 09:00:41;;;;;;;88.40;83.70;;;;;;;23.68;67.46;101169.38;5074427;27;102273;-55
2022/08/09 09:03:09;;;;;;;72.88;69.00;;;;;;;23.67;67.69;101163.03;5076232;27;103959;-55
2022/08/09 09:05:36;;;;;;;71.40;67.47;;;;;;;23.66;68.16;101172.50;5075744;27;103242;-55
2022/08/09 09:08:05;;;;;;;69.55;65.75;;;;;;;23.65;67.96;101156.16;5076945;27;102676;-55
2022/08/09 09:10:32;;;;;;;;;;;;;;;23.65;68.61;101170.84;5078208;27;102384;-55
2022/08/09 09:12:58;;;;;;;;;;;;;;;23.67;68.10;101162.22;5073343;27;103991;-55
2022/08/09 09:15:24;;;;;;;;;;;;;;;23.67;68.01;101159.44;5076637;27;102921;-55
2022/08/09 09:17:52;;;;;;;;;;;;;;;23.68;67.60;101169.38;5078305;27;102381;-55
2022/08/09 09:20:18;;;;;;;;;;;;;;;23.67;67.80;101163.03;5074485;27;102700;-55
2022/08/09 09:22:54;;;;;;;;;;;;;;;23.68;67.72;101153.53;5072812;27;104346;-55
2022/08/09 09:25:31;;;;;;;;;;;;;;;23.68;68.07;101145.19;5070684;27;103534;-55
2022/08/09 09:27:59;;;;;;;;;;;;;;;23.66;68.28;101150.25;5070305;27;103992;-55
2022/08/09 09:30:25;;;;;;;;;;;;;;;23.66;68.55;101143.91;5077832;27;102261;-55
2022/08/09 09:33:01;;;;;;;;;;;;;;;23.66;68.93;101152.25;5075509;27;103938;-55
2022/08/09 09:35:28;;;;;;;;;;;;;;;23.65;68.97;101139.47;5077323;27;102390;-55
2022/08/09 09:37:54;;;;;;;;;;;;;;;23.65;68.38;101148.63;5077616;27;103214;-55
2022/08/09 09:40:20;;;;;;;;;;;;;;;23.65;67.85;101148.63;5078654;27;102961;-55
2022/08/09 09:42:53;;;;;;;;;;;;;;;23.65;68.52;101142.25;5076052;27;103945;-55
2022/08/09 09:45:20;;;;;;;;;;;;;;;23.63;68.67;101137.06;5084163;27;102669;-55
2022/08/09 09:47:46;;;;;;;;;;;;;;;23.64;68.06;101141.47;5086661;27;102262;-55
2022/08/09 09:50:20;;;;;;;;;;;;;;;23.64;67.90;101141.47;5082435;27;103549;-55
2022/08/09 09:52:50;;;;;;;;;;;;;;;23.64;68.69;101133.13;5095546;27;104106;-55
2022/08/09 09:55:16;;;;;;;;;;;;;;;23.64;68.92;101135.91;5086951;27;102203;-55
2022/08/09 09:57:55;;;;;;;;;;;;;;;23.62;68.99;101118.78;5082770;27;102642;-56
2022/08/09 10:00:22;;;;;;;;;;;;;;;23.63;67.08;101134.28;5084094;27;102327;-55
2022/08/09 10:02:48;;;;;;;;;;;;;;;23.65;67.15;101120.84;5080166;27;103941;-55
2022/08/09 10:05:16;;;;;;;;;;;;;;;23.65;68.37;101125.59;5083895;27;102173;-55
2022/08/09 10:07:43;;;;;;;;;;;;;;;23.64;68.69;101123.97;5081565;27;102357;-55
2022/08/09 10:10:09;;;;;;;;;;;;;;;23.63;68.70;101128.72;5091534;27;102424;-55
2022/08/09 10:12:37;;;;;;;;;;;;;;;23.63;68.75;101125.94;5076343;27;103939;-55
2022/08/09 10:15:05;;;;;;;;;;;;;;;23.63;68.34;101125.94;5076949;27;102066;-55
2022/08/09 10:17:33;;;;;;;;;;;;;;;23.63;68.10;101123.19;5076523;27;102206;-55
2022/08/09 10:19:59;;;;;;;;;;;;;;;23.64;68.16;101135.91;5077567;27;102338;-55
2022/08/09 10:22:31;;;;;;;;;;;;;;;23.63;68.20;101122.38;5077241;27;103920;-55
2022/08/09 10:24:58;;;;;;;;;;;;;;;23.61;68.07;101121.91;5075634;27;102326;-55
2022/08/09 10:27:24;;;;;;;;;;;;;;;23.61;66.21;101114.38;5070004;27;102477;-55
2022/08/09 10:29:51;;;;;;;;;;;;;;;23.63;66.95;101123.19;5067569;27;102219;-55
2022/08/09 10:32:17;;;;;;;;;;;;;;;23.65;67.35;101112.50;5074930;27;103925;-55
2022/08/09 10:34:44;;;;;;;;;;;;;;;23.63;66.80;101117.63;5085632;27;102163;-55
2022/08/09 10:37:11;;;;;;;;;;;;;;;23.62;66.27;101104.06;5073647;27;102465;-55
2022/08/09 10:39:39;;;;;;;;;;;;;;;23.61;67.85;101117.16;5070551;27;102729;-55
2022/08/09 10:42:06;;;;;;;61.22;57.83;;;;;;;23.62;67.32;101107.69;5061487;27;103862;-55
2022/08/09 10:44:34;;;;;;;60.80;57.58;;;;;;;23.62;68.33;101116.00;5074383;27;102643;-55
2022/08/09 10:47:23;;;;;;;68.97;65.22;;;;;;;23.60;66.70;101109.97;5069377;27;102618;-55
2022/08/09 10:50:02;;;;;;;68.47;64.85;;;;;;;23.57;67.72;101102.34;5077208;27;102200;-55
2022/08/09 10:52:49;;;;;;;63.60;60.05;;;;;;;23.57;68.08;101102.34;5075782;27;104033;-55
2022/08/09 10:55:22;;;;;;;58.03;54.80;;;;;;;23.58;67.92;101098.41;5075845;27;102303;-55
2022/08/09 10:57:49;;;;;;;74.75;70.70;;;;;;;23.58;66.46;101098.41;5073089;27;103034;-54
2022/08/09 11:00:36;;;;;;;74.72;70.82;;;;;;;23.58;65.99;101087.28;5074579;27;102227;-55
2022/08/09 11:03:19;;;;;;;73.40;69.47;;;;;;;23.56;67.29;101089.63;5074242;27;104256;-55
2022/08/09 11:06:19;;;;;;;74.32;70.20;;;;;;;23.60;66.26;101095.28;5067171;27;102278;-55
2022/08/09 11:08:46;;;;;;;68.95;65.35;;;;;;;23.61;67.72;101096.91;5088570;27;102570;-55
2022/08/09 11:11:15;;;;;;;78.03;73.95;;;;;;;23.60;68.37;101096.09;5085728;27;102156;-55
2022/08/09 11:13:43;;;;;;;65.72;62.25;;;;;;;23.57;67.74;101093.19;5095354;27;104082;-55
2022/08/09 11:16:31;;;;;;;75.65;71.55;;;;;;;23.58;67.70;101092.84;5086791;27;102477;-55
2022/08/09 11:18:58;;;;;;;74.25;70.35;;;;;;;23.58;67.21;101092.84;5073028;27;102193;-55
2022/08/09 11:21:53;;;;;;;74.45;70.32;;;;;;;23.57;67.91;101113.44;5077030;27;102037;-55